Palchem 1 — 9HA2097 — position and weather

sailwx.info

Track history (hours):
 
Tides and Currents Weather Stations Pressure Air Temp Water Temp Dewpoint Dewpoint Depression Visibility Wind Speed Wind Dir Waves Ship Positions

Palchem 1

Last reported at 2015-May-05 11:16 UTC. Time now 2015-May-23 13:26 UTC.
Position N 02°53' E 100°57'.
Warning: this ship's position is 18 days out of date.

Length 143 m; draft 9.3 m.

Type: Ship (hazmat cat B). MMSI: 249955000.

Date/timePositionNaut miles runAvg speedWind from/ knotsBaromVisibWave heightAir tempDewpointWater temp
2015-May-05 11:16N 02°53' E 100°57'17 9.8
2015-May-05 09:33N 02°45' E 101°11'7612.0
2015-May-05 03:11N 01°59' E 102°12'810.6
2015-May-05 02:28N 01°55' E 102°19'910.2
2015-May-05 01:32N 01°52' E 102°27'1010.2
2015-May-05 00:31N 01°47' E 102°37'7612.0
2015-May-04 18:14N 01°09' E 103°42'7 9.5
2015-May-04 17:32N 01°11' E 103°49'1111.2
2015-May-04 16:32N 01°15' E 103°59'  
Track history (hours):
 
Tides and Currents Weather Stations Pressure Air Temp Water Temp Dewpoint Dewpoint Depression Visibility Wind Speed Wind Dir Waves Ship Positions

Palchem 1

Last reported at 2015-May-05 11:16 UTC. Time now 2015-May-23 13:26 UTC.
Position N 02°53' E 100°57'.
Warning: this ship's position is 18 days out of date.

Length 143 m; draft 9.3 m.

Type: Ship (hazmat cat B). MMSI: 249955000.

Date/timePositionNaut miles runAvg speedWind from/ knotsBaromVisibWave heightAir tempDewpointWater temp
2015-May-05 11:16N 02°53' E 100°57'17 9.8
2015-May-05 09:33N 02°45' E 101°11'7612.0
2015-May-05 03:11N 01°59' E 102°12'810.6
2015-May-05 02:28N 01°55' E 102°19'910.2
2015-May-05 01:32N 01°52' E 102°27'1010.2
2015-May-05 00:31N 01°47' E 102°37'7612.0
2015-May-04 18:14N 01°09' E 103°42'7 9.5
2015-May-04 17:32N 01°11' E 103°49'1111.2
2015-May-04 16:32N 01°15' E 103°59'  

Dump ship's entire track history